sensor_id;sensor_type;location;lat;lon;timestamp;temperature;humidity
72440;DHT22;60446;50.752;4.352;2023-12-28T00:00:05;9.60;99.90
72440;DHT22;60446;50.752;4.352;2023-12-28T00:02:34;9.60;99.90
72440;DHT22;60446;50.752;4.352;2023-12-28T00:05:01;9.60;99.90
72440;DHT22;60446;50.752;4.352;2023-12-28T00:07:28;9.60;99.90
72440;DHT22;60446;50.752;4.352;2023-12-28T00:09:56;9.60;99.90
72440;DHT22;60446;50.752;4.352;2023-12-28T00:12:23;9.60;99.90
72440;DHT22;60446;50.752;4.352;2023-12-28T00:14:50;9.60;99.90
72440;DHT22;60446;50.752;4.352;2023-12-28T00:17:18;9.60;99.90
72440;DHT22;60446;50.752;4.352;2023-12-28T00:19:46;9.50;99.90
72440;DHT22;60446;50.752;4.352;2023-12-28T00:22:14;9.50;99.90
72440;DHT22;60446;50.752;4.352;2023-12-28T00:24:41;9.60;99.90
72440;DHT22;60446;50.752;4.352;2023-12-28T00:27:08;9.60;99.90
72440;DHT22;60446;50.752;4.352;2023-12-28T00:29:35;9.50;99.90
72440;DHT22;60446;50.752;4.352;2023-12-28T00:32:05;9.50;99.90
72440;DHT22;60446;50.752;4.352;2023-12-28T00:34:33;9.50;99.90
72440;DHT22;60446;50.752;4.352;2023-12-28T00:37:00;9.60;99.90
72440;DHT22;60446;50.752;4.352;2023-12-28T00:39:28;9.60;99.90
72440;DHT22;60446;50.752;4.352;2023-12-28T00:41:55;9.70;99.90
72440;DHT22;60446;50.752;4.352;2023-12-28T00:44:22;9.70;99.90
72440;DHT22;60446;50.752;4.352;2023-12-28T00:46:50;9.70;99.90
72440;DHT22;60446;50.752;4.352;2023-12-28T00:49:17;9.60;99.90
72440;DHT22;60446;50.752;4.352;2023-12-28T00:51:45;9.60;99.90
72440;DHT22;60446;50.752;4.352;2023-12-28T00:54:12;9.70;99.90
72440;DHT22;60446;50.752;4.352;2023-12-28T00:56:39;9.60;99.90
72440;DHT22;60446;50.752;4.352;2023-12-28T00:59:06;9.60;99.90
72440;DHT22;60446;50.752;4.352;2023-12-28T01:01:34;9.60;99.90
72440;DHT22;60446;50.752;4.352;2023-12-28T01:04:01;9.60;99.90
72440;DHT22;60446;50.752;4.352;2023-12-28T01:06:28;9.60;99.90
72440;DHT22;60446;50.752;4.352;2023-12-28T01:08:56;9.50;99.90
72440;DHT22;60446;50.752;4.352;2023-12-28T01:11:23;9.50;99.90
72440;DHT22;60446;50.752;4.352;2023-12-28T01:13:51;9.50;99.90
72440;DHT22;60446;50.752;4.352;2023-12-28T01:16:19;9.50;99.90
72440;DHT22;60446;50.752;4.352;2023-12-28T01:18:47;9.40;99.90
72440;DHT22;60446;50.752;4.352;2023-12-28T01:21:14;9.40;99.90
72440;DHT22;60446;50.752;4.352;2023-12-28T01:23:41;9.40;99.90
72440;DHT22;60446;50.752;4.352;2023-12-28T01:26:13;9.50;99.90
72440;DHT22;60446;50.752;4.352;2023-12-28T01:28:41;9.40;99.90
72440;DHT22;60446;50.752;4.352;2023-12-28T01:31:08;9.40;99.90
72440;DHT22;60446;50.752;4.352;2023-12-28T01:33:37;9.40;99.90
72440;DHT22;60446;50.752;4.352;2023-12-28T01:36:18;9.40;99.90
72440;DHT22;60446;50.752;4.352;2023-12-28T01:38:47;9.30;99.90
72440;DHT22;60446;50.752;4.352;2023-12-28T01:41:15;9.30;99.90
72440;DHT22;60446;50.752;4.352;2023-12-28T01:43:42;9.40;99.90
72440;DHT22;60446;50.752;4.352;2023-12-28T01:46:20;9.30;99.90
72440;DHT22;60446;50.752;4.352;2023-12-28T01:48:49;9.30;99.90
72440;DHT22;60446;50.752;4.352;2023-12-28T01:51:19;9.30;99.90
72440;DHT22;60446;50.752;4.352;2023-12-28T01:53:48;9.30;99.90
72440;DHT22;60446;50.752;4.352;2023-12-28T01:56:18;9.40;99.90
72440;DHT22;60446;50.752;4.352;2023-12-28T01:58:46;9.40;99.90
72440;DHT22;60446;50.752;4.352;2023-12-28T02:01:17;9.30;99.90
72440;DHT22;60446;50.752;4.352;2023-12-28T02:03:45;9.40;99.90
72440;DHT22;60446;50.752;4.352;2023-12-28T02:06:14;9.40;99.90
72440;DHT22;60446;50.752;4.352;2023-12-28T02:08:46;9.40;99.90
72440;DHT22;60446;50.752;4.352;2023-12-28T02:11:13;9.40;99.90
72440;DHT22;60446;50.752;4.352;2023-12-28T02:13:40;9.40;99.90
72440;DHT22;60446;50.752;4.352;2023-12-28T02:16:13;9.40;99.90
72440;DHT22;60446;50.752;4.352;2023-12-28T02:18:50;9.40;99.90
72440;DHT22;60446;50.752;4.352;2023-12-28T02:21:20;9.40;99.90
72440;DHT22;60446;50.752;4.352;2023-12-28T02:23:49;9.40;99.90
72440;DHT22;60446;50.752;4.352;2023-12-28T02:26:17;9.40;99.90
72440;DHT22;60446;50.752;4.352;2023-12-28T02:28:47;9.40;99.90
72440;DHT22;60446;50.752;4.352;2023-12-28T02:31:21;9.40;99.90
72440;DHT22;60446;50.752;4.352;2023-12-28T02:34:00;9.50;99.90
72440;DHT22;60446;50.752;4.352;2023-12-28T02:36:41;9.50;99.90
72440;DHT22;60446;50.752;4.352;2023-12-28T02:39:14;9.50;99.90
72440;DHT22;60446;50.752;4.352;2023-12-28T02:41:44;9.50;99.90
72440;DHT22;60446;50.752;4.352;2023-12-28T02:44:12;9.50;99.90
72440;DHT22;60446;50.752;4.352;2023-12-28T02:46:40;9.60;99.90
72440;DHT22;60446;50.752;4.352;2023-12-28T02:49:07;9.70;99.90
72440;DHT22;60446;50.752;4.352;2023-12-28T02:51:37;9.70;99.90
72440;DHT22;60446;50.752;4.352;2023-12-28T02:54:04;9.70;99.90
72440;DHT22;60446;50.752;4.352;2023-12-28T02:56:31;9.70;99.90
72440;DHT22;60446;50.752;4.352;2023-12-28T02:58:59;9.70;99.90
72440;DHT22;60446;50.752;4.352;2023-12-28T03:01:27;9.70;99.90
72440;DHT22;60446;50.752;4.352;2023-12-28T03:03:55;9.70;99.90
72440;DHT22;60446;50.752;4.352;2023-12-28T03:06:23;9.80;99.90
72440;DHT22;60446;50.752;4.352;2023-12-28T03:08:52;9.80;99.90
72440;DHT22;60446;50.752;4.352;2023-12-28T03:11:19;9.90;99.90
72440;DHT22;60446;50.752;4.352;2023-12-28T03:13:47;9.90;99.90
72440;DHT22;60446;50.752;4.352;2023-12-28T03:16:15;9.90;99.90
72440;DHT22;60446;50.752;4.352;2023-12-28T03:18:42;9.90;99.90
72440;DHT22;60446;50.752;4.352;2023-12-28T03:21:10;9.90;99.90
72440;DHT22;60446;50.752;4.352;2023-12-28T03:23:37;9.90;99.90
72440;DHT22;60446;50.752;4.352;2023-12-28T03:26:05;9.90;99.90
72440;DHT22;60446;50.752;4.352;2023-12-28T03:28:33;10.00;99.90
72440;DHT22;60446;50.752;4.352;2023-12-28T03:31:02;9.90;99.90
72440;DHT22;60446;50.752;4.352;2023-12-28T03:33:30;9.90;99.90
72440;DHT22;60446;50.752;4.352;2023-12-28T03:35:58;9.80;99.90
72440;DHT22;60446;50.752;4.352;2023-12-28T03:38:26;9.80;99.90
72440;DHT22;60446;50.752;4.352;2023-12-28T03:40:54;9.80;99.90
72440;DHT22;60446;50.752;4.352;2023-12-28T03:43:21;9.80;99.90
72440;DHT22;60446;50.752;4.352;2023-12-28T03:45:49;9.70;99.90
72440;DHT22;60446;50.752;4.352;2023-12-28T03:48:16;9.70;99.90
72440;DHT22;60446;50.752;4.352;2023-12-28T03:50:44;9.60;99.90
72440;DHT22;60446;50.752;4.352;2023-12-28T03:53:11;9.60;99.90
72440;DHT22;60446;50.752;4.352;2023-12-28T03:55:39;9.60;99.90
72440;DHT22;60446;50.752;4.352;2023-12-28T03:58:06;9.50;99.90
72440;DHT22;60446;50.752;4.352;2023-12-28T04:00:35;9.60;99.90
72440;DHT22;60446;50.752;4.352;2023-12-28T04:03:03;9.70;99.90
72440;DHT22;60446;50.752;4.352;2023-12-28T04:05:31;9.60;99.90
72440;DHT22;60446;50.752;4.352;2023-12-28T04:07:58;9.70;99.90
72440;DHT22;60446;50.752;4.352;2023-12-28T04:10:30;9.70;99.90
72440;DHT22;60446;50.752;4.352;2023-12-28T04:12:59;9.80;99.90
72440;DHT22;60446;50.752;4.352;2023-12-28T04:15:27;9.80;99.90
72440;DHT22;60446;50.752;4.352;2023-12-28T04:17:54;9.90;99.90
72440;DHT22;60446;50.752;4.352;2023-12-28T04:20:22;9.90;99.90
72440;DHT22;60446;50.752;4.352;2023-12-28T04:22:50;9.90;99.90
72440;DHT22;60446;50.752;4.352;2023-12-28T04:25:17;9.90;99.90
72440;DHT22;60446;50.752;4.352;2023-12-28T04:27:44;9.90;99.90
72440;DHT22;60446;50.752;4.352;2023-12-28T04:30:12;9.90;99.90
72440;DHT22;60446;50.752;4.352;2023-12-28T04:32:40;9.80;99.90
72440;DHT22;60446;50.752;4.352;2023-12-28T04:35:07;9.80;99.90
72440;DHT22;60446;50.752;4.352;2023-12-28T04:37:35;9.80;99.90
72440;DHT22;60446;50.752;4.352;2023-12-28T04:40:03;9.80;99.90
72440;DHT22;60446;50.752;4.352;2023-12-28T04:42:31;9.80;99.90
72440;DHT22;60446;50.752;4.352;2023-12-28T04:44:59;9.80;99.90
72440;DHT22;60446;50.752;4.352;2023-12-28T04:47:26;9.80;99.90
72440;DHT22;60446;50.752;4.352;2023-12-28T04:49:54;9.70;99.90
72440;DHT22;60446;50.752;4.352;2023-12-28T04:52:21;9.60;99.90
72440;DHT22;60446;50.752;4.352;2023-12-28T04:54:49;9.50;99.90
72440;DHT22;60446;50.752;4.352;2023-12-28T04:57:16;9.50;99.90
72440;DHT22;60446;50.752;4.352;2023-12-28T04:59:44;9.50;99.90
72440;DHT22;60446;50.752;4.352;2023-12-28T05:02:12;9.40;99.90
72440;DHT22;60446;50.752;4.352;2023-12-28T05:04:39;9.40;99.90
72440;DHT22;60446;50.752;4.352;2023-12-28T05:07:07;9.30;99.90
72440;DHT22;60446;50.752;4.352;2023-12-28T05:09:34;9.30;99.90
72440;DHT22;60446;50.752;4.352;2023-12-28T05:12:01;9.30;99.90
72440;DHT22;60446;50.752;4.352;2023-12-28T05:14:29;9.30;99.90
72440;DHT22;60446;50.752;4.352;2023-12-28T05:16:57;9.30;99.90
72440;DHT22;60446;50.752;4.352;2023-12-28T05:19:24;9.30;99.90
72440;DHT22;60446;50.752;4.352;2023-12-28T05:21:52;9.20;99.90
72440;DHT22;60446;50.752;4.352;2023-12-28T05:24:19;9.30;99.90
72440;DHT22;60446;50.752;4.352;2023-12-28T05:26:46;9.30;99.90
72440;DHT22;60446;50.752;4.352;2023-12-28T05:29:14;9.30;99.90
72440;DHT22;60446;50.752;4.352;2023-12-28T05:31:41;9.20;99.90
72440;DHT22;60446;50.752;4.352;2023-12-28T05:34:08;9.20;99.90
72440;DHT22;60446;50.752;4.352;2023-12-28T05:36:35;9.20;99.90
72440;DHT22;60446;50.752;4.352;2023-12-28T05:39:03;9.20;99.90
72440;DHT22;60446;50.752;4.352;2023-12-28T05:41:30;9.30;99.90
72440;DHT22;60446;50.752;4.352;2023-12-28T05:43:58;9.40;99.90
72440;DHT22;60446;50.752;4.352;2023-12-28T05:46:25;9.40;99.90
72440;DHT22;60446;50.752;4.352;2023-12-28T05:48:52;9.40;99.90
72440;DHT22;60446;50.752;4.352;2023-12-28T05:51:19;9.50;99.90
72440;DHT22;60446;50.752;4.352;2023-12-28T05:53:46;9.60;99.90
72440;DHT22;60446;50.752;4.352;2023-12-28T05:56:14;9.50;99.90
72440;DHT22;60446;50.752;4.352;2023-12-28T05:58:41;9.50;99.90
72440;DHT22;60446;50.752;4.352;2023-12-28T06:01:09;9.50;99.90
72440;DHT22;60446;50.752;4.352;2023-12-28T06:03:36;9.50;99.90
72440;DHT22;60446;50.752;4.352;2023-12-28T06:06:04;9.50;99.90
72440;DHT22;60446;50.752;4.352;2023-12-28T06:08:31;9.50;99.90
72440;DHT22;60446;50.752;4.352;2023-12-28T06:10:59;9.50;99.90
72440;DHT22;60446;50.752;4.352;2023-12-28T06:13:29;9.50;99.90
72440;DHT22;60446;50.752;4.352;2023-12-28T06:15:57;9.50;99.90
72440;DHT22;60446;50.752;4.352;2023-12-28T06:18:24;9.40;99.90
72440;DHT22;60446;50.752;4.352;2023-12-28T06:20:51;9.40;99.90
72440;DHT22;60446;50.752;4.352;2023-12-28T06:23:19;9.30;99.90
72440;DHT22;60446;50.752;4.352;2023-12-28T06:25:46;9.30;99.90
72440;DHT22;60446;50.752;4.352;2023-12-28T06:28:13;9.20;99.90
72440;DHT22;60446;50.752;4.352;2023-12-28T06:30:41;9.20;99.90
72440;DHT22;60446;50.752;4.352;2023-12-28T06:33:08;9.20;99.90
72440;DHT22;60446;50.752;4.352;2023-12-28T06:35:35;9.20;99.90
72440;DHT22;60446;50.752;4.352;2023-12-28T06:38:02;9.10;99.90
72440;DHT22;60446;50.752;4.352;2023-12-28T06:40:30;9.10;99.90
72440;DHT22;60446;50.752;4.352;2023-12-28T06:42:58;9.00;99.90
72440;DHT22;60446;50.752;4.352;2023-12-28T06:45:25;9.00;99.90
72440;DHT22;60446;50.752;4.352;2023-12-28T06:47:55;9.00;99.90
72440;DHT22;60446;50.752;4.352;2023-12-28T06:50:23;9.00;99.90
72440;DHT22;60446;50.752;4.352;2023-12-28T06:52:51;9.00;99.90
72440;DHT22;60446;50.752;4.352;2023-12-28T06:55:18;9.00;99.90
72440;DHT22;60446;50.752;4.352;2023-12-28T06:57:45;8.90;99.90
72440;DHT22;60446;50.752;4.352;2023-12-28T07:00:13;8.90;99.90
72440;DHT22;60446;50.752;4.352;2023-12-28T07:02:40;8.90;99.90
72440;DHT22;60446;50.752;4.352;2023-12-28T07:05:08;8.90;99.90
72440;DHT22;60446;50.752;4.352;2023-12-28T07:07:35;8.90;99.90
72440;DHT22;60446;50.752;4.352;2023-12-28T07:10:04;8.80;99.90
72440;DHT22;60446;50.752;4.352;2023-12-28T07:12:32;8.80;99.90
72440;DHT22;60446;50.752;4.352;2023-12-28T07:14:59;8.80;99.90
72440;DHT22;60446;50.752;4.352;2023-12-28T07:17:26;8.70;99.90
72440;DHT22;60446;50.752;4.352;2023-12-28T07:19:53;8.70;99.90
72440;DHT22;60446;50.752;4.352;2023-12-28T07:22:21;8.70;99.90
72440;DHT22;60446;50.752;4.352;2023-12-28T07:24:48;8.70;99.90
72440;DHT22;60446;50.752;4.352;2023-12-28T07:27:16;8.70;99.90
72440;DHT22;60446;50.752;4.352;2023-12-28T07:29:43;8.80;99.90
72440;DHT22;60446;50.752;4.352;2023-12-28T07:32:10;8.70;99.90
72440;DHT22;60446;50.752;4.352;2023-12-28T07:34:38;8.70;99.90
72440;DHT22;60446;50.752;4.352;2023-12-28T07:37:05;8.70;99.90
72440;DHT22;60446;50.752;4.352;2023-12-28T07:39:32;8.70;99.90
72440;DHT22;60446;50.752;4.352;2023-12-28T07:42:00;8.70;99.90
72440;DHT22;60446;50.752;4.352;2023-12-28T07:44:28;8.70;99.90
72440;DHT22;60446;50.752;4.352;2023-12-28T07:46:55;8.70;99.90
72440;DHT22;60446;50.752;4.352;2023-12-28T07:49:22;8.70;99.90
72440;DHT22;60446;50.752;4.352;2023-12-28T07:51:50;8.80;99.90
72440;DHT22;60446;50.752;4.352;2023-12-28T07:54:17;8.80;99.90
72440;DHT22;60446;50.752;4.352;2023-12-28T07:56:44;8.80;99.90
72440;DHT22;60446;50.752;4.352;2023-12-28T07:59:11;8.80;99.90
72440;DHT22;60446;50.752;4.352;2023-12-28T08:01:39;8.80;99.90
72440;DHT22;60446;50.752;4.352;2023-12-28T08:04:06;8.80;99.90
72440;DHT22;60446;50.752;4.352;2023-12-28T08:06:34;8.90;99.90
72440;DHT22;60446;50.752;4.352;2023-12-28T08:09:01;8.90;99.90
72440;DHT22;60446;50.752;4.352;2023-12-28T08:11:28;8.80;99.90
72440;DHT22;60446;50.752;4.352;2023-12-28T08:13:55;8.80;99.90
72440;DHT22;60446;50.752;4.352;2023-12-28T08:16:22;8.90;99.90
72440;DHT22;60446;50.752;4.352;2023-12-28T08:18:50;8.80;99.90
72440;DHT22;60446;50.752;4.352;2023-12-28T08:21:18;8.80;99.90
72440;DHT22;60446;50.752;4.352;2023-12-28T08:23:45;8.90;99.90
72440;DHT22;60446;50.752;4.352;2023-12-28T08:26:12;9.00;99.90
72440;DHT22;60446;50.752;4.352;2023-12-28T08:28:39;9.00;99.90
72440;DHT22;60446;50.752;4.352;2023-12-28T08:31:07;9.10;99.90
72440;DHT22;60446;50.752;4.352;2023-12-28T08:33:36;9.10;99.90
72440;DHT22;60446;50.752;4.352;2023-12-28T08:36:07;9.20;99.90
72440;DHT22;60446;50.752;4.352;2023-12-28T08:38:34;9.20;99.90
72440;DHT22;60446;50.752;4.352;2023-12-28T08:41:02;9.20;99.90
72440;DHT22;60446;50.752;4.352;2023-12-28T08:43:30;9.20;99.90
72440;DHT22;60446;50.752;4.352;2023-12-28T08:45:57;9.30;99.90
72440;DHT22;60446;50.752;4.352;2023-12-28T08:48:25;9.30;99.90
72440;DHT22;60446;50.752;4.352;2023-12-28T08:50:52;9.20;99.90
72440;DHT22;60446;50.752;4.352;2023-12-28T08:53:19;9.30;99.90
72440;DHT22;60446;50.752;4.352;2023-12-28T08:55:47;9.30;99.90
72440;DHT22;60446;50.752;4.352;2023-12-28T08:58:14;9.40;99.90
72440;DHT22;60446;50.752;4.352;2023-12-28T09:00:41;9.30;99.90
72440;DHT22;60446;50.752;4.352;2023-12-28T09:03:12;9.30;99.90
72440;DHT22;60446;50.752;4.352;2023-12-28T09:05:39;9.30;99.90
72440;DHT22;60446;50.752;4.352;2023-12-28T09:08:06;9.30;99.90
72440;DHT22;60446;50.752;4.352;2023-12-28T09:10:35;9.30;99.90
72440;DHT22;60446;50.752;4.352;2023-12-28T09:13:04;9.30;99.90
72440;DHT22;60446;50.752;4.352;2023-12-28T09:15:32;9.30;99.90
72440;DHT22;60446;50.752;4.352;2023-12-28T09:18:00;9.20;99.90
72440;DHT22;60446;50.752;4.352;2023-12-28T09:20:28;9.30;99.90
72440;DHT22;60446;50.752;4.352;2023-12-28T09:22:55;9.30;99.90
72440;DHT22;60446;50.752;4.352;2023-12-28T09:25:23;9.30;99.90
72440;DHT22;60446;50.752;4.352;2023-12-28T09:27:51;9.30;99.90
72440;DHT22;60446;50.752;4.352;2023-12-28T09:30:18;9.40;99.90
72440;DHT22;60446;50.752;4.352;2023-12-28T09:32:45;9.40;99.90
72440;DHT22;60446;50.752;4.352;2023-12-28T09:35:13;9.40;99.90
72440;DHT22;60446;50.752;4.352;2023-12-28T09:37:40;9.50;99.90
72440;DHT22;60446;50.752;4.352;2023-12-28T09:40:08;9.50;99.90
72440;DHT22;60446;50.752;4.352;2023-12-28T09:42:47;9.50;99.90
72440;DHT22;60446;50.752;4.352;2023-12-28T09:45:18;9.50;99.90
72440;DHT22;60446;50.752;4.352;2023-12-28T09:47:48;9.60;99.90
72440;DHT22;60446;50.752;4.352;2023-12-28T09:50:18;9.70;99.90
72440;DHT22;60446;50.752;4.352;2023-12-28T09:52:46;9.70;99.90
72440;DHT22;60446;50.752;4.352;2023-12-28T09:55:13;9.70;99.90
72440;DHT22;60446;50.752;4.352;2023-12-28T09:57:40;9.80;99.90
72440;DHT22;60446;50.752;4.352;2023-12-28T10:00:09;9.80;99.90
72440;DHT22;60446;50.752;4.352;2023-12-28T10:02:44;9.80;99.90
72440;DHT22;60446;50.752;4.352;2023-12-28T10:05:14;9.90;99.90
72440;DHT22;60446;50.752;4.352;2023-12-28T10:07:43;10.00;99.90
72440;DHT22;60446;50.752;4.352;2023-12-28T10:10:17;10.00;99.90
72440;DHT22;60446;50.752;4.352;2023-12-28T10:12:46;10.00;99.90
72440;DHT22;60446;50.752;4.352;2023-12-28T10:15:14;10.00;99.90
72440;DHT22;60446;50.752;4.352;2023-12-28T10:17:41;10.00;99.90
72440;DHT22;60446;50.752;4.352;2023-12-28T10:20:09;10.00;99.90
72440;DHT22;60446;50.752;4.352;2023-12-28T10:22:37;10.10;99.90
72440;DHT22;60446;50.752;4.352;2023-12-28T10:25:05;10.00;99.90
72440;DHT22;60446;50.752;4.352;2023-12-28T10:27:40;10.10;99.90
72440;DHT22;60446;50.752;4.352;2023-12-28T10:30:09;10.10;99.90
72440;DHT22;60446;50.752;4.352;2023-12-28T10:32:41;10.10;99.90
72440;DHT22;60446;50.752;4.352;2023-12-28T10:35:09;10.00;99.90
72440;DHT22;60446;50.752;4.352;2023-12-28T10:37:39;10.10;99.90
72440;DHT22;60446;50.752;4.352;2023-12-28T10:40:15;10.10;99.90
72440;DHT22;60446;50.752;4.352;2023-12-28T10:42:54;10.10;99.90
72440;DHT22;60446;50.752;4.352;2023-12-28T10:45:30;10.20;99.90
72440;DHT22;60446;50.752;4.352;2023-12-28T10:48:06;10.20;99.90
72440;DHT22;60446;50.752;4.352;2023-12-28T10:50:40;10.20;99.90
72440;DHT22;60446;50.752;4.352;2023-12-28T10:59:32;10.30;99.90
72440;DHT22;60446;50.752;4.352;2023-12-28T11:02:07;10.40;99.90
72440;DHT22;60446;50.752;4.352;2023-12-28T11:04:47;10.50;99.90
72440;DHT22;60446;50.752;4.352;2023-12-28T11:07:18;10.60;99.90
72440;DHT22;60446;50.752;4.352;2023-12-28T11:09:45;10.70;99.90
72440;DHT22;60446;50.752;4.352;2023-12-28T11:12:13;10.80;99.90
72440;DHT22;60446;50.752;4.352;2023-12-28T11:14:41;10.80;99.90
72440;DHT22;60446;50.752;4.352;2023-12-28T11:17:10;10.80;99.90
72440;DHT22;60446;50.752;4.352;2023-12-28T11:19:42;10.80;99.10
72440;DHT22;60446;50.752;4.352;2023-12-28T11:22:10;10.80;99.90
72440;DHT22;60446;50.752;4.352;2023-12-28T11:24:38;10.80;99.90
72440;DHT22;60446;50.752;4.352;2023-12-28T11:27:06;10.80;99.90
72440;DHT22;60446;50.752;4.352;2023-12-28T11:29:37;10.80;99.90
72440;DHT22;60446;50.752;4.352;2023-12-28T11:32:04;10.80;99.90
72440;DHT22;60446;50.752;4.352;2023-12-28T11:34:32;10.80;99.50
72440;DHT22;60446;50.752;4.352;2023-12-28T11:37:06;10.80;98.90
72440;DHT22;60446;50.752;4.352;2023-12-28T11:39:36;10.80;99.30
72440;DHT22;60446;50.752;4.352;2023-12-28T11:42:06;10.90;99.70
72440;DHT22;60446;50.752;4.352;2023-12-28T11:44:43;10.90;99.10
72440;DHT22;60446;50.752;4.352;2023-12-28T11:47:15;11.00;99.30
72440;DHT22;60446;50.752;4.352;2023-12-28T11:49:50;10.90;98.50
72440;DHT22;60446;50.752;4.352;2023-12-28T11:52:29;11.00;99.70
72440;DHT22;60446;50.752;4.352;2023-12-28T11:54:58;11.00;98.90
72440;DHT22;60446;50.752;4.352;2023-12-28T11:57:26;11.10;97.90
72440;DHT22;60446;50.752;4.352;2023-12-28T11:59:56;11.10;97.50
72440;DHT22;60446;50.752;4.352;2023-12-28T12:02:25;11.10;96.70
72440;DHT22;60446;50.752;4.352;2023-12-28T12:04:56;11.00;96.60
72440;DHT22;60446;50.752;4.352;2023-12-28T12:07:29;11.00;97.20
72440;DHT22;60446;50.752;4.352;2023-12-28T12:09:59;11.10;96.00
72440;DHT22;60446;50.752;4.352;2023-12-28T12:12:28;11.10;94.90
72440;DHT22;60446;50.752;4.352;2023-12-28T12:14:56;11.10;97.30
72440;DHT22;60446;50.752;4.352;2023-12-28T12:17:24;11.00;97.00
72440;DHT22;60446;50.752;4.352;2023-12-28T12:19:52;11.10;97.50
72440;DHT22;60446;50.752;4.352;2023-12-28T12:22:22;11.00;97.10
72440;DHT22;60446;50.752;4.352;2023-12-28T12:24:56;11.00;96.90
72440;DHT22;60446;50.752;4.352;2023-12-28T12:27:26;11.00;98.00
72440;DHT22;60446;50.752;4.352;2023-12-28T12:29:54;11.00;97.70
72440;DHT22;60446;50.752;4.352;2023-12-28T12:32:21;11.00;97.70
72440;DHT22;60446;50.752;4.352;2023-12-28T12:34:50;11.00;98.10
72440;DHT22;60446;50.752;4.352;2023-12-28T12:37:18;11.00;97.10
72440;DHT22;60446;50.752;4.352;2023-12-28T12:39:45;11.00;97.40
72440;DHT22;60446;50.752;4.352;2023-12-28T12:42:13;11.00;98.30
72440;DHT22;60446;50.752;4.352;2023-12-28T12:44:41;10.90;98.20
72440;DHT22;60446;50.752;4.352;2023-12-28T12:47:08;10.90;97.50
72440;DHT22;60446;50.752;4.352;2023-12-28T12:49:37;10.80;98.00
72440;DHT22;60446;50.752;4.352;2023-12-28T12:52:06;10.80;98.40
72440;DHT22;60446;50.752;4.352;2023-12-28T12:54:34;10.80;98.40
72440;DHT22;60446;50.752;4.352;2023-12-28T12:57:02;10.80;97.70
72440;DHT22;60446;50.752;4.352;2023-12-28T12:59:30;10.90;98.30
72440;DHT22;60446;50.752;4.352;2023-12-28T13:01:58;10.80;98.30
72440;DHT22;60446;50.752;4.352;2023-12-28T13:04:26;10.80;98.60
72440;DHT22;60446;50.752;4.352;2023-12-28T13:06:54;10.80;98.90
72440;DHT22;60446;50.752;4.352;2023-12-28T13:09:21;10.80;98.90
72440;DHT22;60446;50.752;4.352;2023-12-28T13:11:49;10.70;99.20
72440;DHT22;60446;50.752;4.352;2023-12-28T13:14:17;10.70;98.20
72440;DHT22;60446;50.752;4.352;2023-12-28T13:16:44;10.70;97.80
72440;DHT22;60446;50.752;4.352;2023-12-28T13:19:15;10.70;99.00
72440;DHT22;60446;50.752;4.352;2023-12-28T13:21:42;10.70;98.50
72440;DHT22;60446;50.752;4.352;2023-12-28T13:24:10;10.70;98.30
72440;DHT22;60446;50.752;4.352;2023-12-28T13:26:37;10.70;99.10
72440;DHT22;60446;50.752;4.352;2023-12-28T13:29:05;10.70;98.00
72440;DHT22;60446;50.752;4.352;2023-12-28T13:31:32;10.70;98.60
72440;DHT22;60446;50.752;4.352;2023-12-28T13:34:00;10.70;98.20
72440;DHT22;60446;50.752;4.352;2023-12-28T13:36:28;10.70;97.70
72440;DHT22;60446;50.752;4.352;2023-12-28T13:38:55;10.70;97.40
72440;DHT22;60446;50.752;4.352;2023-12-28T13:41:22;10.70;98.90
72440;DHT22;60446;50.752;4.352;2023-12-28T13:43:51;10.70;97.80
72440;DHT22;60446;50.752;4.352;2023-12-28T13:46:18;10.70;97.10
72440;DHT22;60446;50.752;4.352;2023-12-28T13:48:46;10.70;96.70
72440;DHT22;60446;50.752;4.352;2023-12-28T13:51:13;10.60;97.50
72440;DHT22;60446;50.752;4.352;2023-12-28T13:53:40;10.60;98.10
72440;DHT22;60446;50.752;4.352;2023-12-28T13:56:08;10.60;96.70
72440;DHT22;60446;50.752;4.352;2023-12-28T13:58:35;10.60;95.90
72440;DHT22;60446;50.752;4.352;2023-12-28T14:01:03;10.60;96.90
72440;DHT22;60446;50.752;4.352;2023-12-28T14:03:31;10.60;96.60
72440;DHT22;60446;50.752;4.352;2023-12-28T14:05:59;10.60;97.80
72440;DHT22;60446;50.752;4.352;2023-12-28T14:08:27;10.60;97.40
72440;DHT22;60446;50.752;4.352;2023-12-28T14:10:54;10.60;97.00
72440;DHT22;60446;50.752;4.352;2023-12-28T14:13:21;10.60;96.50
72440;DHT22;60446;50.752;4.352;2023-12-28T14:15:49;10.50;98.40
72440;DHT22;60446;50.752;4.352;2023-12-28T14:18:16;10.50;96.90
72440;DHT22;60446;50.752;4.352;2023-12-28T14:20:43;10.50;97.40
72440;DHT22;60446;50.752;4.352;2023-12-28T14:23:11;10.50;96.90
72440;DHT22;60446;50.752;4.352;2023-12-28T14:25:39;10.50;97.30
72440;DHT22;60446;50.752;4.352;2023-12-28T14:28:07;10.40;98.00
72440;DHT22;60446;50.752;4.352;2023-12-28T14:30:35;10.40;97.90
72440;DHT22;60446;50.752;4.352;2023-12-28T14:33:03;10.40;97.80
72440;DHT22;60446;50.752;4.352;2023-12-28T14:35:31;10.40;98.00
72440;DHT22;60446;50.752;4.352;2023-12-28T14:37:58;10.50;98.20
72440;DHT22;60446;50.752;4.352;2023-12-28T14:40:26;10.40;98.50
72440;DHT22;60446;50.752;4.352;2023-12-28T14:42:53;10.40;98.70
72440;DHT22;60446;50.752;4.352;2023-12-28T14:45:21;10.30;98.70
72440;DHT22;60446;50.752;4.352;2023-12-28T14:47:49;10.30;99.40
72440;DHT22;60446;50.752;4.352;2023-12-28T14:50:16;10.30;99.10
72440;DHT22;60446;50.752;4.352;2023-12-28T14:52:44;10.20;99.60
72440;DHT22;60446;50.752;4.352;2023-12-28T14:55:11;10.20;98.60
72440;DHT22;60446;50.752;4.352;2023-12-28T14:57:38;10.20;99.60
72440;DHT22;60446;50.752;4.352;2023-12-28T15:00:06;10.10;99.30
72440;DHT22;60446;50.752;4.352;2023-12-28T15:02:34;10.10;99.70
72440;DHT22;60446;50.752;4.352;2023-12-28T15:05:01;10.10;98.90
72440;DHT22;60446;50.752;4.352;2023-12-28T15:07:28;10.10;99.90
72440;DHT22;60446;50.752;4.352;2023-12-28T15:09:56;10.10;99.70
72440;DHT22;60446;50.752;4.352;2023-12-28T15:12:25;10.00;99.50
72440;DHT22;60446;50.752;4.352;2023-12-28T15:14:54;10.00;99.90
72440;DHT22;60446;50.752;4.352;2023-12-28T15:17:22;10.00;99.90
72440;DHT22;60446;50.752;4.352;2023-12-28T15:19:49;10.00;99.80
72440;DHT22;60446;50.752;4.352;2023-12-28T15:22:17;10.00;99.90
72440;DHT22;60446;50.752;4.352;2023-12-28T15:24:44;10.00;99.90
72440;DHT22;60446;50.752;4.352;2023-12-28T15:27:12;9.90;99.80
72440;DHT22;60446;50.752;4.352;2023-12-28T15:29:40;9.90;99.40
72440;DHT22;60446;50.752;4.352;2023-12-28T15:32:07;9.90;99.10
72440;DHT22;60446;50.752;4.352;2023-12-28T15:34:34;9.90;99.60
72440;DHT22;60446;50.752;4.352;2023-12-28T15:37:03;9.90;99.70
72440;DHT22;60446;50.752;4.352;2023-12-28T15:39:30;9.90;99.60
72440;DHT22;60446;50.752;4.352;2023-12-28T15:41:58;9.90;99.10
72440;DHT22;60446;50.752;4.352;2023-12-28T15:44:26;9.90;99.60
72440;DHT22;60446;50.752;4.352;2023-12-28T15:46:53;9.80;99.30
72440;DHT22;60446;50.752;4.352;2023-12-28T15:49:20;9.80;99.20
72440;DHT22;60446;50.752;4.352;2023-12-28T15:51:48;9.80;99.60